sensor_id;sensor_type;location;lat;lon;timestamp;P1;durP1;ratioP1;P2;durP2;ratioP2
11064;SDS011;5585;52.530;7.320;2022-09-02T00:01:36;0.52;;;0.40;;
11064;SDS011;5585;52.530;7.320;2022-09-02T00:04:03;0.60;;;0.40;;
11064;SDS011;5585;52.530;7.320;2022-09-02T00:06:31;1.13;;;0.47;;
11064;SDS011;5585;52.530;7.320;2022-09-02T00:08:58;0.80;;;0.45;;
11064;SDS011;5585;52.530;7.320;2022-09-02T00:11:25;0.70;;;0.60;;
11064;SDS011;5585;52.530;7.320;2022-09-02T00:13:52;0.85;;;0.50;;
11064;SDS011;5585;52.530;7.320;2022-09-02T00:16:19;0.65;;;0.40;;
11064;SDS011;5585;52.530;7.320;2022-09-02T00:18:49;0.63;;;0.50;;
11064;SDS011;5585;52.530;7.320;2022-09-02T00:21:15;0.68;;;0.65;;
11064;SDS011;5585;52.530;7.320;2022-09-02T00:23:43;0.30;;;0.30;;
11064;SDS011;5585;52.530;7.320;2022-09-02T00:26:10;0.40;;;0.40;;
11064;SDS011;5585;52.530;7.320;2022-09-02T00:28:37;0.52;;;0.32;;
11064;SDS011;5585;52.530;7.320;2022-09-02T00:31:04;2.25;;;0.43;;
11064;SDS011;5585;52.530;7.320;2022-09-02T00:33:31;0.77;;;0.60;;
11064;SDS011;5585;52.530;7.320;2022-09-02T00:36:00;0.63;;;0.47;;
11064;SDS011;5585;52.530;7.320;2022-09-02T00:38:27;0.70;;;0.43;;
11064;SDS011;5585;52.530;7.320;2022-09-02T00:40:54;0.45;;;0.45;;
11064;SDS011;5585;52.530;7.320;2022-09-02T00:43:22;0.40;;;0.38;;
11064;SDS011;5585;52.530;7.320;2022-09-02T00:45:49;0.50;;;0.45;;
11064;SDS011;5585;52.530;7.320;2022-09-02T00:48:16;0.70;;;0.47;;
11064;SDS011;5585;52.530;7.320;2022-09-02T00:50:42;0.70;;;0.52;;
11064;SDS011;5585;52.530;7.320;2022-09-02T00:53:10;0.90;;;0.50;;
11064;SDS011;5585;52.530;7.320;2022-09-02T00:55:39;1.08;;;0.40;;
11064;SDS011;5585;52.530;7.320;2022-09-02T00:58:13;1.27;;;0.57;;
11064;SDS011;5585;52.530;7.320;2022-09-02T01:00:41;0.40;;;0.40;;
11064;SDS011;5585;52.530;7.320;2022-09-02T01:03:09;0.40;;;0.30;;
11064;SDS011;5585;52.530;7.320;2022-09-02T01:05:38;0.50;;;0.47;;
11064;SDS011;5585;52.530;7.320;2022-09-02T01:08:10;0.50;;;0.50;;
11064;SDS011;5585;52.530;7.320;2022-09-02T01:10:37;0.47;;;0.47;;
11064;SDS011;5585;52.530;7.320;2022-09-02T01:13:06;0.50;;;0.40;;
11064;SDS011;5585;52.530;7.320;2022-09-02T01:15:33;1.30;;;0.70;;
11064;SDS011;5585;52.530;7.320;2022-09-02T01:18:00;0.60;;;0.60;;
11064;SDS011;5585;52.530;7.320;2022-09-02T01:20:27;0.40;;;0.40;;
11064;SDS011;5585;52.530;7.320;2022-09-02T01:22:55;1.35;;;0.40;;
11064;SDS011;5585;52.530;7.320;2022-09-02T01:25:23;0.50;;;0.50;;
11064;SDS011;5585;52.530;7.320;2022-09-02T01:27:51;0.90;;;0.60;;
11064;SDS011;5585;52.530;7.320;2022-09-02T01:30:19;0.93;;;0.60;;
11064;SDS011;5585;52.530;7.320;2022-09-02T01:32:45;0.68;;;0.60;;
11064;SDS011;5585;52.530;7.320;2022-09-02T01:35:12;0.52;;;0.50;;
11064;SDS011;5585;52.530;7.320;2022-09-02T01:37:39;0.88;;;0.63;;
11064;SDS011;5585;52.530;7.320;2022-09-02T01:40:08;0.95;;;0.60;;
11064;SDS011;5585;52.530;7.320;2022-09-02T01:42:35;0.93;;;0.70;;
11064;SDS011;5585;52.530;7.320;2022-09-02T01:45:02;0.30;;;0.30;;
11064;SDS011;5585;52.530;7.320;2022-09-02T01:47:28;0.77;;;0.40;;
11064;SDS011;5585;52.530;7.320;2022-09-02T01:49:55;0.57;;;0.50;;
11064;SDS011;5585;52.530;7.320;2022-09-02T01:52:23;0.65;;;0.50;;
11064;SDS011;5585;52.530;7.320;2022-09-02T01:54:49;0.40;;;0.40;;
11064;SDS011;5585;52.530;7.320;2022-09-02T01:57:18;1.23;;;0.50;;
11064;SDS011;5585;52.530;7.320;2022-09-02T01:59:44;0.60;;;0.60;;
11064;SDS011;5585;52.530;7.320;2022-09-02T02:02:11;0.73;;;0.60;;
11064;SDS011;5585;52.530;7.320;2022-09-02T02:04:38;0.50;;;0.50;;
11064;SDS011;5585;52.530;7.320;2022-09-02T02:07:04;0.63;;;0.60;;
11064;SDS011;5585;52.530;7.320;2022-09-02T02:09:31;0.63;;;0.60;;
11064;SDS011;5585;52.530;7.320;2022-09-02T02:11:58;0.50;;;0.50;;
11064;SDS011;5585;52.530;7.320;2022-09-02T02:14:26;0.47;;;0.43;;
11064;SDS011;5585;52.530;7.320;2022-09-02T02:16:52;1.27;;;0.60;;
11064;SDS011;5585;52.530;7.320;2022-09-02T02:19:19;1.25;;;0.47;;
11064;SDS011;5585;52.530;7.320;2022-09-02T02:21:45;0.70;;;0.60;;
11064;SDS011;5585;52.530;7.320;2022-09-02T02:24:12;0.47;;;0.47;;
11064;SDS011;5585;52.530;7.320;2022-09-02T02:26:38;0.55;;;0.50;;
11064;SDS011;5585;52.530;7.320;2022-09-02T02:29:05;0.57;;;0.57;;
11064;SDS011;5585;52.530;7.320;2022-09-02T02:31:33;0.85;;;0.45;;
11064;SDS011;5585;52.530;7.320;2022-09-02T02:33:59;0.52;;;0.52;;
11064;SDS011;5585;52.530;7.320;2022-09-02T02:36:27;0.88;;;0.50;;
11064;SDS011;5585;52.530;7.320;2022-09-02T02:38:53;2.10;;;0.50;;
11064;SDS011;5585;52.530;7.320;2022-09-02T02:41:20;0.93;;;0.82;;
11064;SDS011;5585;52.530;7.320;2022-09-02T02:43:46;1.08;;;0.90;;
11064;SDS011;5585;52.530;7.320;2022-09-02T02:46:13;1.10;;;0.70;;
11064;SDS011;5585;52.530;7.320;2022-09-02T02:48:41;0.70;;;0.60;;
11064;SDS011;5585;52.530;7.320;2022-09-02T02:51:08;1.60;;;0.63;;
11064;SDS011;5585;52.530;7.320;2022-09-02T02:53:35;0.75;;;0.73;;
11064;SDS011;5585;52.530;7.320;2022-09-02T02:56:01;2.13;;;1.20;;
11064;SDS011;5585;52.530;7.320;2022-09-02T02:58:28;0.88;;;0.80;;
11064;SDS011;5585;52.530;7.320;2022-09-02T03:00:55;1.08;;;0.80;;
11064;SDS011;5585;52.530;7.320;2022-09-02T03:03:21;0.55;;;0.50;;
11064;SDS011;5585;52.530;7.320;2022-09-02T03:05:50;0.60;;;0.57;;
11064;SDS011;5585;52.530;7.320;2022-09-02T03:08:17;0.60;;;0.60;;
11064;SDS011;5585;52.530;7.320;2022-09-02T03:10:45;1.58;;;0.77;;
11064;SDS011;5585;52.530;7.320;2022-09-02T03:13:11;0.65;;;0.65;;
11064;SDS011;5585;52.530;7.320;2022-09-02T03:15:39;0.77;;;0.70;;
11064;SDS011;5585;52.530;7.320;2022-09-02T03:18:05;1.08;;;0.77;;
11064;SDS011;5585;52.530;7.320;2022-09-02T03:20:32;1.58;;;0.70;;
11064;SDS011;5585;52.530;7.320;2022-09-02T03:23:00;0.77;;;0.68;;
11064;SDS011;5585;52.530;7.320;2022-09-02T03:25:28;0.82;;;0.60;;
11064;SDS011;5585;52.530;7.320;2022-09-02T03:27:55;0.90;;;0.60;;
11064;SDS011;5585;52.530;7.320;2022-09-02T03:30:23;0.82;;;0.70;;
11064;SDS011;5585;52.530;7.320;2022-09-02T03:32:50;0.70;;;0.70;;
11064;SDS011;5585;52.530;7.320;2022-09-02T03:35:18;1.42;;;0.60;;
11064;SDS011;5585;52.530;7.320;2022-09-02T03:37:45;1.70;;;0.70;;
11064;SDS011;5585;52.530;7.320;2022-09-02T03:40:14;1.00;;;0.88;;
11064;SDS011;5585;52.530;7.320;2022-09-02T03:42:41;0.90;;;0.75;;
11064;SDS011;5585;52.530;7.320;2022-09-02T03:45:08;0.77;;;0.75;;
11064;SDS011;5585;52.530;7.320;2022-09-02T03:47:35;0.85;;;0.73;;
11064;SDS011;5585;52.530;7.320;2022-09-02T03:50:04;1.17;;;0.85;;
11064;SDS011;5585;52.530;7.320;2022-09-02T03:52:31;1.27;;;1.00;;
11064;SDS011;5585;52.530;7.320;2022-09-02T03:54:57;0.80;;;0.80;;
11064;SDS011;5585;52.530;7.320;2022-09-02T03:57:25;0.70;;;0.70;;
11064;SDS011;5585;52.530;7.320;2022-09-02T03:59:52;0.85;;;0.82;;
11064;SDS011;5585;52.530;7.320;2022-09-02T04:02:18;0.80;;;0.65;;
11064;SDS011;5585;52.530;7.320;2022-09-02T04:04:45;0.68;;;0.68;;
11064;SDS011;5585;52.530;7.320;2022-09-02T04:07:11;0.73;;;0.73;;
11064;SDS011;5585;52.530;7.320;2022-09-02T04:09:38;2.75;;;0.70;;
11064;SDS011;5585;52.530;7.320;2022-09-02T04:12:04;0.98;;;0.85;;
11064;SDS011;5585;52.530;7.320;2022-09-02T04:14:32;2.08;;;0.88;;
11064;SDS011;5585;52.530;7.320;2022-09-02T04:16:59;0.90;;;0.90;;
11064;SDS011;5585;52.530;7.320;2022-09-02T04:19:25;1.48;;;0.70;;
11064;SDS011;5585;52.530;7.320;2022-09-02T04:21:52;0.95;;;0.93;;
11064;SDS011;5585;52.530;7.320;2022-09-02T04:24:18;0.50;;;0.50;;
11064;SDS011;5585;52.530;7.320;2022-09-02T04:26:44;3.35;;;0.80;;
11064;SDS011;5585;52.530;7.320;2022-09-02T04:29:11;1.35;;;0.90;;
11064;SDS011;5585;52.530;7.320;2022-09-02T04:31:39;0.95;;;0.70;;
11064;SDS011;5585;52.530;7.320;2022-09-02T04:34:06;1.25;;;0.70;;
11064;SDS011;5585;52.530;7.320;2022-09-02T04:36:32;2.80;;;0.90;;
11064;SDS011;5585;52.530;7.320;2022-09-02T04:38:59;2.90;;;0.95;;
11064;SDS011;5585;52.530;7.320;2022-09-02T04:41:26;1.05;;;0.90;;
11064;SDS011;5585;52.530;7.320;2022-09-02T04:43:53;2.63;;;0.80;;
11064;SDS011;5585;52.530;7.320;2022-09-02T04:46:20;0.70;;;0.57;;
11064;SDS011;5585;52.530;7.320;2022-09-02T04:48:48;1.08;;;0.80;;
11064;SDS011;5585;52.530;7.320;2022-09-02T04:51:16;1.17;;;0.80;;
11064;SDS011;5585;52.530;7.320;2022-09-02T04:53:43;1.42;;;0.82;;
11064;SDS011;5585;52.530;7.320;2022-09-02T04:56:11;1.65;;;0.77;;
11064;SDS011;5585;52.530;7.320;2022-09-02T04:58:39;1.10;;;0.80;;
11064;SDS011;5585;52.530;7.320;2022-09-02T05:01:06;1.35;;;0.90;;
11064;SDS011;5585;52.530;7.320;2022-09-02T05:03:32;0.93;;;0.75;;
11064;SDS011;5585;52.530;7.320;2022-09-02T05:06:01;2.15;;;0.90;;
11064;SDS011;5585;52.530;7.320;2022-09-02T05:08:28;1.08;;;0.70;;
11064;SDS011;5585;52.530;7.320;2022-09-02T05:10:55;1.25;;;0.90;;
11064;SDS011;5585;52.530;7.320;2022-09-02T05:13:21;0.77;;;0.60;;
11064;SDS011;5585;52.530;7.320;2022-09-02T05:15:50;0.95;;;0.77;;
11064;SDS011;5585;52.530;7.320;2022-09-02T05:18:16;0.80;;;0.80;;
11064;SDS011;5585;52.530;7.320;2022-09-02T05:20:43;1.08;;;0.82;;
11064;SDS011;5585;52.530;7.320;2022-09-02T05:23:11;1.13;;;0.80;;
11064;SDS011;5585;52.530;7.320;2022-09-02T05:25:38;1.92;;;0.88;;
11064;SDS011;5585;52.530;7.320;2022-09-02T05:28:05;1.00;;;0.82;;
11064;SDS011;5585;52.530;7.320;2022-09-02T05:30:33;1.65;;;0.95;;
11064;SDS011;5585;52.530;7.320;2022-09-02T05:32:59;1.23;;;0.98;;
11064;SDS011;5585;52.530;7.320;2022-09-02T05:35:27;1.63;;;1.08;;
11064;SDS011;5585;52.530;7.320;2022-09-02T05:37:54;1.40;;;1.00;;
11064;SDS011;5585;52.530;7.320;2022-09-02T05:40:22;2.20;;;1.00;;
11064;SDS011;5585;52.530;7.320;2022-09-02T05:42:49;1.77;;;0.75;;
11064;SDS011;5585;52.530;7.320;2022-09-02T05:45:15;1.88;;;1.17;;
11064;SDS011;5585;52.530;7.320;2022-09-02T05:47:42;2.53;;;1.10;;
11064;SDS011;5585;52.530;7.320;2022-09-02T05:50:09;1.42;;;0.90;;
11064;SDS011;5585;52.530;7.320;2022-09-02T05:52:35;1.00;;;0.90;;
11064;SDS011;5585;52.530;7.320;2022-09-02T05:55:02;2.10;;;1.10;;
11064;SDS011;5585;52.530;7.320;2022-09-02T05:57:30;2.55;;;1.00;;
11064;SDS011;5585;52.530;7.320;2022-09-02T05:59:56;1.58;;;1.00;;
11064;SDS011;5585;52.530;7.320;2022-09-02T06:02:23;1.33;;;1.00;;
11064;SDS011;5585;52.530;7.320;2022-09-02T06:04:51;2.35;;;1.27;;
11064;SDS011;5585;52.530;7.320;2022-09-02T06:07:18;1.27;;;1.00;;
11064;SDS011;5585;52.530;7.320;2022-09-02T06:09:46;2.08;;;0.80;;
11064;SDS011;5585;52.530;7.320;2022-09-02T06:12:13;1.23;;;0.93;;
11064;SDS011;5585;52.530;7.320;2022-09-02T06:14:42;1.40;;;1.20;;
11064;SDS011;5585;52.530;7.320;2022-09-02T06:17:08;1.52;;;1.30;;
11064;SDS011;5585;52.530;7.320;2022-09-02T06:19:35;1.10;;;1.00;;
11064;SDS011;5585;52.530;7.320;2022-09-02T06:22:01;0.88;;;0.88;;
11064;SDS011;5585;52.530;7.320;2022-09-02T06:24:28;1.10;;;0.98;;
11064;SDS011;5585;52.530;7.320;2022-09-02T06:26:55;2.53;;;1.10;;
11064;SDS011;5585;52.530;7.320;2022-09-02T06:29:22;2.55;;;1.02;;
11064;SDS011;5585;52.530;7.320;2022-09-02T06:31:50;1.17;;;0.88;;
11064;SDS011;5585;52.530;7.320;2022-09-02T06:34:18;2.58;;;1.15;;
11064;SDS011;5585;52.530;7.320;2022-09-02T06:36:45;1.80;;;1.00;;
11064;SDS011;5585;52.530;7.320;2022-09-02T06:39:13;1.02;;;0.90;;
11064;SDS011;5585;52.530;7.320;2022-09-02T06:41:40;1.95;;;0.80;;
11064;SDS011;5585;52.530;7.320;2022-09-02T06:44:08;1.60;;;1.35;;
11064;SDS011;5585;52.530;7.320;2022-09-02T06:46:35;1.15;;;1.05;;
11064;SDS011;5585;52.530;7.320;2022-09-02T06:49:04;1.45;;;1.20;;
11064;SDS011;5585;52.530;7.320;2022-09-02T06:51:31;1.20;;;1.00;;
11064;SDS011;5585;52.530;7.320;2022-09-02T06:53:58;2.20;;;1.30;;
11064;SDS011;5585;52.530;7.320;2022-09-02T06:56:25;1.80;;;1.15;;
11064;SDS011;5585;52.530;7.320;2022-09-02T06:58:52;1.17;;;1.00;;
11064;SDS011;5585;52.530;7.320;2022-09-02T07:01:18;2.15;;;1.23;;
11064;SDS011;5585;52.530;7.320;2022-09-02T07:03:45;1.48;;;1.00;;
11064;SDS011;5585;52.530;7.320;2022-09-02T07:06:33;1.15;;;1.05;;
11064;SDS011;5585;52.530;7.320;2022-09-02T07:09:00;3.28;;;0.98;;
11064;SDS011;5585;52.530;7.320;2022-09-02T07:11:27;2.60;;;1.27;;
11064;SDS011;5585;52.530;7.320;2022-09-02T07:13:53;1.98;;;1.10;;
11064;SDS011;5585;52.530;7.320;2022-09-02T07:16:20;1.35;;;0.90;;
11064;SDS011;5585;52.530;7.320;2022-09-02T07:18:46;0.80;;;0.80;;
11064;SDS011;5585;52.530;7.320;2022-09-02T07:21:13;1.10;;;1.00;;
11064;SDS011;5585;52.530;7.320;2022-09-02T07:23:40;1.25;;;0.80;;
11064;SDS011;5585;52.530;7.320;2022-09-02T07:26:10;1.30;;;1.00;;
11064;SDS011;5585;52.530;7.320;2022-09-02T07:28:36;1.55;;;0.80;;
11064;SDS011;5585;52.530;7.320;2022-09-02T07:31:06;0.90;;;0.80;;
11064;SDS011;5585;52.530;7.320;2022-09-02T07:33:32;1.00;;;0.90;;
11064;SDS011;5585;52.530;7.320;2022-09-02T07:36:01;1.30;;;0.60;;
11064;SDS011;5585;52.530;7.320;2022-09-02T07:38:29;0.82;;;0.70;;
11064;SDS011;5585;52.530;7.320;2022-09-02T07:40:57;1.05;;;0.82;;
11064;SDS011;5585;52.530;7.320;2022-09-02T07:43:24;0.70;;;0.70;;
11064;SDS011;5585;52.530;7.320;2022-09-02T07:45:51;0.85;;;0.60;;
11064;SDS011;5585;52.530;7.320;2022-09-02T07:48:19;0.75;;;0.60;;
11064;SDS011;5585;52.530;7.320;2022-09-02T07:50:46;2.03;;;0.85;;
11064;SDS011;5585;52.530;7.320;2022-09-02T07:53:12;2.92;;;0.85;;
11064;SDS011;5585;52.530;7.320;2022-09-02T07:55:41;1.50;;;0.60;;
11064;SDS011;5585;52.530;7.320;2022-09-02T07:58:09;1.65;;;0.93;;
11064;SDS011;5585;52.530;7.320;2022-09-02T08:00:36;0.80;;;0.70;;
11064;SDS011;5585;52.530;7.320;2022-09-02T08:03:03;1.85;;;0.90;;
11064;SDS011;5585;52.530;7.320;2022-09-02T08:05:30;1.08;;;0.65;;
11064;SDS011;5585;52.530;7.320;2022-09-02T08:07:57;1.77;;;0.70;;
11064;SDS011;5585;52.530;7.320;2022-09-02T08:10:24;0.90;;;0.63;;
11064;SDS011;5585;52.530;7.320;2022-09-02T08:12:53;1.75;;;0.63;;
11064;SDS011;5585;52.530;7.320;2022-09-02T08:15:21;1.67;;;0.77;;
11064;SDS011;5585;52.530;7.320;2022-09-02T08:17:48;0.52;;;0.50;;
11064;SDS011;5585;52.530;7.320;2022-09-02T08:20:15;0.82;;;0.75;;
11064;SDS011;5585;52.530;7.320;2022-09-02T08:22:42;1.17;;;0.80;;
11064;SDS011;5585;52.530;7.320;2022-09-02T08:25:09;1.25;;;0.80;;
11064;SDS011;5585;52.530;7.320;2022-09-02T08:27:36;1.25;;;0.73;;
11064;SDS011;5585;52.530;7.320;2022-09-02T08:30:03;0.95;;;0.85;;
11064;SDS011;5585;52.530;7.320;2022-09-02T08:32:31;0.80;;;0.80;;
11064;SDS011;5585;52.530;7.320;2022-09-02T08:34:57;1.02;;;0.80;;
11064;SDS011;5585;52.530;7.320;2022-09-02T08:37:26;1.02;;;0.85;;
11064;SDS011;5585;52.530;7.320;2022-09-02T08:39:53;0.82;;;0.70;;
11064;SDS011;5585;52.530;7.320;2022-09-02T08:42:20;1.05;;;0.70;;
11064;SDS011;5585;52.530;7.320;2022-09-02T08:44:48;1.13;;;0.70;;
11064;SDS011;5585;52.530;7.320;2022-09-02T08:47:19;1.00;;;0.73;;
11064;SDS011;5585;52.530;7.320;2022-09-02T08:49:49;1.88;;;0.68;;
11064;SDS011;5585;52.530;7.320;2022-09-02T08:52:18;0.68;;;0.60;;
11064;SDS011;5585;52.530;7.320;2022-09-02T08:54:49;0.75;;;0.63;;
11064;SDS011;5585;52.530;7.320;2022-09-02T08:57:16;0.93;;;0.60;;
11064;SDS011;5585;52.530;7.320;2022-09-02T08:59:43;1.77;;;0.80;;
11064;SDS011;5585;52.530;7.320;2022-09-02T09:02:12;0.77;;;0.77;;
11064;SDS011;5585;52.530;7.320;2022-09-02T09:04:55;1.65;;;0.80;;
11064;SDS011;5585;52.530;7.320;2022-09-02T09:07:25;0.63;;;0.55;;
11064;SDS011;5585;52.530;7.320;2022-09-02T09:10:00;1.15;;;0.73;;
11064;SDS011;5585;52.530;7.320;2022-09-02T09:12:33;1.98;;;0.90;;
11064;SDS011;5585;52.530;7.320;2022-09-02T09:15:02;0.75;;;0.75;;
11064;SDS011;5585;52.530;7.320;2022-09-02T09:17:31;1.02;;;0.70;;
11064;SDS011;5585;52.530;7.320;2022-09-02T09:20:00;0.73;;;0.70;;
11064;SDS011;5585;52.530;7.320;2022-09-02T09:22:30;1.25;;;0.80;;
11064;SDS011;5585;52.530;7.320;2022-09-02T09:24:57;0.90;;;0.60;;
11064;SDS011;5585;52.530;7.320;2022-09-02T09:27:24;1.25;;;0.65;;
11064;SDS011;5585;52.530;7.320;2022-09-02T09:29:51;2.45;;;0.70;;
11064;SDS011;5585;52.530;7.320;2022-09-02T09:32:22;0.70;;;0.60;;
11064;SDS011;5585;52.530;7.320;2022-09-02T09:34:54;1.63;;;0.77;;
11064;SDS011;5585;52.530;7.320;2022-09-02T09:37:28;0.95;;;0.80;;
11064;SDS011;5585;52.530;7.320;2022-09-02T09:39:56;2.45;;;0.90;;
11064;SDS011;5585;52.530;7.320;2022-09-02T09:42:32;1.20;;;0.70;;
11064;SDS011;5585;52.530;7.320;2022-09-02T09:44:59;2.60;;;0.60;;
11064;SDS011;5585;52.530;7.320;2022-09-02T09:47:40;1.08;;;0.80;;
11064;SDS011;5585;52.530;7.320;2022-09-02T09:50:08;0.88;;;0.68;;
11064;SDS011;5585;52.530;7.320;2022-09-02T09:52:36;1.27;;;0.90;;
11064;SDS011;5585;52.530;7.320;2022-09-02T09:58:06;1.10;;;0.80;;
11064;SDS011;5585;52.530;7.320;2022-09-02T10:00:33;1.60;;;0.82;;
11064;SDS011;5585;52.530;7.320;2022-09-02T10:03:00;1.60;;;0.60;;
11064;SDS011;5585;52.530;7.320;2022-09-02T10:05:29;2.78;;;0.80;;
11064;SDS011;5585;52.530;7.320;2022-09-02T10:07:58;2.58;;;0.60;;
11064;SDS011;5585;52.530;7.320;2022-09-02T10:10:26;1.45;;;0.82;;
11064;SDS011;5585;52.530;7.320;2022-09-02T10:12:54;0.70;;;0.60;;
11064;SDS011;5585;52.530;7.320;2022-09-02T10:15:23;0.98;;;0.70;;
11064;SDS011;5585;52.530;7.320;2022-09-02T10:17:53;0.63;;;0.52;;
11064;SDS011;5585;52.530;7.320;2022-09-02T10:20:25;0.90;;;0.73;;
11064;SDS011;5585;52.530;7.320;2022-09-02T10:25:46;1.13;;;0.75;;
11064;SDS011;5585;52.530;7.320;2022-09-02T10:28:19;1.75;;;0.60;;
11064;SDS011;5585;52.530;7.320;2022-09-02T10:30:50;0.90;;;0.73;;
11064;SDS011;5585;52.530;7.320;2022-09-02T10:33:21;1.77;;;0.90;;
11064;SDS011;5585;52.530;7.320;2022-09-02T10:35:50;1.80;;;0.80;;
11064;SDS011;5585;52.530;7.320;2022-09-02T10:38:25;1.55;;;0.75;;
11064;SDS011;5585;52.530;7.320;2022-09-02T10:40:55;3.53;;;0.90;;
11064;SDS011;5585;52.530;7.320;2022-09-02T10:43:27;1.85;;;0.90;;
11064;SDS011;5585;52.530;7.320;2022-09-02T10:45:59;2.05;;;0.80;;
11064;SDS011;5585;52.530;7.320;2022-09-02T10:48:30;1.20;;;0.70;;
11064;SDS011;5585;52.530;7.320;2022-09-02T10:51:02;0.98;;;0.77;;
11064;SDS011;5585;52.530;7.320;2022-09-02T10:53:42;2.58;;;0.80;;
11064;SDS011;5585;52.530;7.320;2022-09-02T10:56:14;0.77;;;0.60;;
11064;SDS011;5585;52.530;7.320;2022-09-02T10:58:43;1.13;;;0.60;;
11064;SDS011;5585;52.530;7.320;2022-09-02T11:01:11;1.38;;;0.90;;
11064;SDS011;5585;52.530;7.320;2022-09-02T11:03:41;0.90;;;0.75;;
11064;SDS011;5585;52.530;7.320;2022-09-02T11:06:11;0.60;;;0.60;;
11064;SDS011;5585;52.530;7.320;2022-09-02T11:08:38;0.80;;;0.70;;
11064;SDS011;5585;52.530;7.320;2022-09-02T11:11:07;0.90;;;0.70;;
11064;SDS011;5585;52.530;7.320;2022-09-02T11:13:38;0.65;;;0.60;;
11064;SDS011;5585;52.530;7.320;2022-09-02T11:16:09;0.88;;;0.82;;
11064;SDS011;5585;52.530;7.320;2022-09-02T11:18:41;1.58;;;0.93;;
11064;SDS011;5585;52.530;7.320;2022-09-02T11:21:11;1.42;;;0.70;;
11064;SDS011;5585;52.530;7.320;2022-09-02T11:23:40;1.48;;;0.80;;
11064;SDS011;5585;52.530;7.320;2022-09-02T11:26:09;1.77;;;0.85;;
11064;SDS011;5585;52.530;7.320;2022-09-02T11:28:40;1.05;;;0.75;;
11064;SDS011;5585;52.530;7.320;2022-09-02T11:31:11;0.90;;;0.70;;
11064;SDS011;5585;52.530;7.320;2022-09-02T11:33:42;2.95;;;1.00;;
11064;SDS011;5585;52.530;7.320;2022-09-02T11:36:10;1.10;;;1.00;;
11064;SDS011;5585;52.530;7.320;2022-09-02T11:38:38;1.33;;;0.90;;
11064;SDS011;5585;52.530;7.320;2022-09-02T11:41:18;0.80;;;0.80;;
11064;SDS011;5585;52.530;7.320;2022-09-02T11:43:49;2.03;;;0.80;;
11064;SDS011;5585;52.530;7.320;2022-09-02T11:46:23;1.98;;;0.90;;
11064;SDS011;5585;52.530;7.320;2022-09-02T11:51:52;1.45;;;0.82;;
11064;SDS011;5585;52.530;7.320;2022-09-02T11:54:20;1.60;;;0.80;;
11064;SDS011;5585;52.530;7.320;2022-09-02T11:56:49;1.25;;;1.13;;
11064;SDS011;5585;52.530;7.320;2022-09-02T11:59:22;1.17;;;0.77;;
11064;SDS011;5585;52.530;7.320;2022-09-02T12:01:49;3.10;;;1.02;;
11064;SDS011;5585;52.530;7.320;2022-09-02T12:04:18;1.08;;;0.90;;
11064;SDS011;5585;52.530;7.320;2022-09-02T12:09:40;0.80;;;0.77;;
11064;SDS011;5585;52.530;7.320;2022-09-02T12:12:07;2.17;;;1.00;;
11064;SDS011;5585;52.530;7.320;2022-09-02T12:17:35;1.83;;;0.80;;
11064;SDS011;5585;52.530;7.320;2022-09-02T12:20:03;0.98;;;0.80;;
11064;SDS011;5585;52.530;7.320;2022-09-02T12:22:33;0.88;;;0.88;;
11064;SDS011;5585;52.530;7.320;2022-09-02T12:25:03;1.40;;;1.00;;
11064;SDS011;5585;52.530;7.320;2022-09-02T12:27:31;1.20;;;1.10;;
11064;SDS011;5585;52.530;7.320;2022-09-02T12:29:58;1.88;;;1.20;;
11064;SDS011;5585;52.530;7.320;2022-09-02T12:35:12;1.25;;;0.90;;
11064;SDS011;5585;52.530;7.320;2022-09-02T12:37:49;1.25;;;0.90;;
11064;SDS011;5585;52.530;7.320;2022-09-02T12:40:19;0.98;;;0.93;;
11064;SDS011;5585;52.530;7.320;2022-09-02T12:42:48;1.55;;;0.95;;
11064;SDS011;5585;52.530;7.320;2022-09-02T12:45:22;1.17;;;0.90;;
11064;SDS011;5585;52.530;7.320;2022-09-02T12:47:51;1.08;;;0.95;;
11064;SDS011;5585;52.530;7.320;2022-09-02T12:50:25;1.33;;;1.10;;
11064;SDS011;5585;52.530;7.320;2022-09-02T12:53:06;1.00;;;0.90;;
11064;SDS011;5585;52.530;7.320;2022-09-02T12:55:33;1.35;;;0.93;;
11064;SDS011;5585;52.530;7.320;2022-09-02T12:58:05;0.98;;;0.90;;
11064;SDS011;5585;52.530;7.320;2022-09-02T13:00:34;1.90;;;1.10;;
11064;SDS011;5585;52.530;7.320;2022-09-02T13:03:09;2.88;;;1.20;;
11064;SDS011;5585;52.530;7.320;2022-09-02T13:05:45;1.20;;;0.90;;
11064;SDS011;5585;52.530;7.320;2022-09-02T13:08:29;2.20;;;1.15;;
11064;SDS011;5585;52.530;7.320;2022-09-02T13:16:38;1.17;;;0.90;;
11064;SDS011;5585;52.530;7.320;2022-09-02T13:22:03;1.45;;;1.13;;
11064;SDS011;5585;52.530;7.320;2022-09-02T13:24:38;0.85;;;0.85;;
11064;SDS011;5585;52.530;7.320;2022-09-02T13:27:19;0.90;;;0.90;;
11064;SDS011;5585;52.530;7.320;2022-09-02T13:29:53;0.93;;;0.80;;
11064;SDS011;5585;52.530;7.320;2022-09-02T13:32:26;1.23;;;0.90;;
11064;SDS011;5585;52.530;7.320;2022-09-02T13:34:53;1.10;;;0.95;;
11064;SDS011;5585;52.530;7.320;2022-09-02T13:37:29;0.90;;;0.90;;
11064;SDS011;5585;52.530;7.320;2022-09-02T13:39:56;1.27;;;0.88;;
11064;SDS011;5585;52.530;7.320;2022-09-02T13:42:23;1.90;;;1.13;;
11064;SDS011;5585;52.530;7.320;2022-09-02T13:44:50;0.98;;;0.88;;
11064;SDS011;5585;52.530;7.320;2022-09-02T13:47:16;1.65;;;1.10;;
11064;SDS011;5585;52.530;7.320;2022-09-02T13:49:44;0.80;;;0.80;;
11064;SDS011;5585;52.530;7.320;2022-09-02T13:52:12;0.93;;;0.90;;
11064;SDS011;5585;52.530;7.320;2022-09-02T13:54:42;1.70;;;1.00;;
11064;SDS011;5585;52.530;7.320;2022-09-02T13:57:10;1.83;;;1.05;;
11064;SDS011;5585;52.530;7.320;2022-09-02T13:59:38;1.10;;;1.00;;
11064;SDS011;5585;52.530;7.320;2022-09-02T14:02:15;0.70;;;0.70;;
11064;SDS011;5585;52.530;7.320;2022-09-02T14:04:42;1.10;;;0.90;;
11064;SDS011;5585;52.530;7.320;2022-09-02T14:07:09;0.80;;;0.80;;
11064;SDS011;5585;52.530;7.320;2022-09-02T14:09:35;0.90;;;0.90;;
11064;SDS011;5585;52.530;7.320;2022-09-02T14:12:04;1.05;;;1.00;;
11064;SDS011;5585;52.530;7.320;2022-09-02T14:14:31;1.13;;;1.02;;
11064;SDS011;5585;52.530;7.320;2022-09-02T14:19:40;0.80;;;0.80;;
11064;SDS011;5585;52.530;7.320;2022-09-02T14:22:06;1.02;;;0.88;;
11064;SDS011;5585;52.530;7.320;2022-09-02T14:24:44;1.27;;;1.17;;
11064;SDS011;5585;52.530;7.320;2022-09-02T14:27:15;1.48;;;1.00;;
11064;SDS011;5585;52.530;7.320;2022-09-02T14:29:42;1.40;;;0.93;;
11064;SDS011;5585;52.530;7.320;2022-09-02T14:32:11;1.45;;;0.98;;
11064;SDS011;5585;52.530;7.320;2022-09-02T14:34:38;1.17;;;0.93;;
11064;SDS011;5585;52.530;7.320;2022-09-02T14:37:18;1.23;;;1.13;;
11064;SDS011;5585;52.530;7.320;2022-09-02T14:42:42;1.10;;;1.00;;
11064;SDS011;5585;52.530;7.320;2022-09-02T14:45:09;2.05;;;1.23;;
11064;SDS011;5585;52.530;7.320;2022-09-02T14:47:36;1.00;;;0.90;;
11064;SDS011;5585;52.530;7.320;2022-09-02T14:50:04;1.15;;;0.98;;
11064;SDS011;5585;52.530;7.320;2022-09-02T14:52:35;1.13;;;0.80;;
11064;SDS011;5585;52.530;7.320;2022-09-02T14:55:03;1.20;;;1.10;;
11064;SDS011;5585;52.530;7.320;2022-09-02T14:57:30;1.00;;;0.90;;
11064;SDS011;5585;52.530;7.320;2022-09-02T15:00:00;1.58;;;1.00;;
11064;SDS011;5585;52.530;7.320;2022-09-02T15:02:30;0.90;;;0.90;;
11064;SDS011;5585;52.530;7.320;2022-09-02T15:04:58;1.17;;;0.98;;
11064;SDS011;5585;52.530;7.320;2022-09-02T15:07:24;1.00;;;0.98;;
11064;SDS011;5585;52.530;7.320;2022-09-02T15:09:51;1.48;;;1.00;;
11064;SDS011;5585;52.530;7.320;2022-09-02T15:12:18;1.90;;;1.05;;
11064;SDS011;5585;52.530;7.320;2022-09-02T15:14:48;1.30;;;1.20;;
11064;SDS011;5585;52.530;7.320;2022-09-02T15:17:16;1.00;;;0.90;;
11064;SDS011;5585;52.530;7.320;2022-09-02T15:19:43;1.52;;;0.90;;
11064;SDS011;5585;52.530;7.320;2022-09-02T15:22:09;1.15;;;0.93;;
11064;SDS011;5585;52.530;7.320;2022-09-02T15:24:36;1.77;;;0.90;;
11064;SDS011;5585;52.530;7.320;2022-09-02T15:27:02;1.10;;;1.00;;
11064;SDS011;5585;52.530;7.320;2022-09-02T15:29:29;1.17;;;1.10;;
11064;SDS011;5585;52.530;7.320;2022-09-02T15:31:55;2.42;;;0.80;;
11064;SDS011;5585;52.530;7.320;2022-09-02T15:34:24;0.82;;;0.82;;
11064;SDS011;5585;52.530;7.320;2022-09-02T15:36:51;1.10;;;1.00;;
11064;SDS011;5585;52.530;7.320;2022-09-02T15:39:19;2.70;;;1.10;;